Time;durP1;ratioP1;P1;durP2;ratioP2;P2;SDS_P1;SDS_P2;PMS_P1;PMS_P2;Temp;Humidity;BMP_temperature;BMP_pressure;BME280_temperature;BME280_humidity;BME280_pressure;Samples;Min_cycle;Max_cycle;Signal;HPM_P1;HPM_P2
2022/01/18 00:04:00;;;;;;;17.17;7.82;;;5.50;96.70;;;;;;9824128;29;20032;-57
2022/01/18 00:08:50;;;;;;;13.63;6.30;;;5.50;96.70;;;;;;9822233;29;20032;-57
2022/01/18 00:13:44;;;;;;;11.90;6.18;;;5.50;96.70;;;;;;9829101;29;20414;-60
2022/01/18 00:18:37;;;;;;;13.82;8.57;;;5.30;96.70;;;;;;9826884;29;20446;-58
2022/01/18 00:23:28;;;;;;;14.50;6.60;;;5.30;96.90;;;;;;9827603;29;20060;-58
2022/01/18 00:28:20;;;;;;;15.55;8.57;;;5.30;96.80;;;;;;9826569;29;20047;-57
2022/01/18 00:38:15;;;;;;;14.65;7.57;;;5.40;96.80;;;;;;9820558;29;20468;-58
2022/01/18 00:43:05;;;;;;;13.82;8.13;;;5.40;96.80;;;;;;9819865;29;20106;-57
2022/01/18 00:47:56;;;;;;;16.70;7.68;;;5.50;96.80;;;;;;9821257;29;20101;-59
2022/01/18 00:52:51;;;;;;;17.48;8.57;;;5.60;96.80;;;;;;9820263;29;20046;-57
2022/01/18 00:57:42;;;;;;;17.17;8.40;;;5.50;96.90;;;;;;9821742;29;20044;-57
2022/01/18 01:02:32;;;;;;;16.35;8.57;;;5.60;96.90;;;;;;9823427;29;20094;-58
2022/01/18 01:07:24;;;;;;;12.32;7.95;;;5.60;97.00;;;;;;9844495;29;20060;-64
2022/01/18 01:12:17;;;;;;;15.10;7.85;;;5.60;96.90;;;;;;9820808;29;20115;-57
2022/01/18 01:42:54;;;;;;;14.45;7.65;;;5.60;97.20;;;;;;9818495;29;20464;-58
2022/01/18 01:47:38;;;;;;;;;;;5.60;97.40;;;;;;9822763;29;20032;-59
2022/01/18 01:52:29;;;;;;;10.43;6.45;;;5.60;97.50;;;;;;9822665;29;20358;-59
2022/01/18 01:57:20;;;;;;;14.30;6.93;;;5.60;97.40;;;;;;9818752;29;20037;-58
2022/01/18 02:02:11;;;;;;;16.92;7.40;;;5.50;97.50;;;;;;9821484;29;20098;-58
2022/01/18 02:07:02;;;;;;;18.77;7.82;;;5.50;97.50;;;;;;9824992;29;20060;-59
2022/01/18 02:11:56;;;;;;;12.55;7.38;;;5.60;97.40;;;;;;9824728;29;20466;-59
2022/01/18 02:21:56;;;;;;;11.75;7.10;;;5.50;97.60;;;;;;9821148;29;20840;-58
2022/01/18 02:26:46;;;;;;;18.05;8.63;;;5.50;97.70;;;;;;9817215;29;20170;-57
2022/01/18 02:31:38;;;;;;;17.20;7.90;;;5.40;97.70;;;;;;9826096;29;20138;-59
2022/01/18 02:36:30;;;;;;;22.42;9.57;;;5.60;97.50;;;;;;9821633;29;20036;-61
2022/01/18 02:41:31;;;;;;;19.55;8.60;;;5.70;97.30;;;;;;9816489;29;20517;-59
2022/01/18 02:46:23;;;;;;;18.92;8.07;;;5.80;97.30;;;;;;9820156;29;20522;-58
2022/01/18 02:51:13;;;;;;;21.42;9.13;;;5.80;97.20;;;;;;9813603;29;20577;-56
2022/01/18 02:56:04;;;;;;;16.70;8.77;;;5.70;97.40;;;;;;9819603;29;20068;-58
2022/01/18 03:05:57;;;;;;;16.55;8.88;;;5.80;97.30;;;;;;9818469;29;20484;-56
2022/01/18 03:10:48;;;;;;;15.70;8.40;;;5.80;97.40;;;;;;9819064;29;20044;-59
2022/01/18 03:15:39;;;;;;;14.77;8.70;;;5.80;97.40;;;;;;9820723;29;20039;-58
2022/01/18 03:20:30;;;;;;;17.65;8.57;;;5.80;97.40;;;;;;9823100;29;20594;-58
2022/01/18 03:25:41;;;;;;;15.18;8.38;;;5.80;97.40;;;;;;9821045;29;20084;-58
2022/01/18 03:30:33;;;;;;;16.05;7.60;;;5.80;97.40;;;;;;9823341;29;20048;-58
2022/01/18 03:35:24;;;;;;;14.55;7.68;;;5.70;97.50;;;;;;9827377;29;20027;-59
2022/01/18 03:40:15;;;;;;;16.90;7.50;;;5.70;97.60;;;;;;9834202;29;20029;-57
2022/01/18 03:45:08;;;;;;;15.73;8.10;;;5.60;97.60;;;;;;9824393;29;20032;-55
2022/01/18 03:50:00;;;;;;;16.65;7.97;;;5.70;97.60;;;;;;9821330;29;20060;-56
2022/01/18 03:54:51;;;;;;;15.75;7.00;;;5.60;97.70;;;;;;9820503;29;20080;-58
2022/01/18 03:59:42;;;;;;;15.52;8.15;;;5.60;97.60;;;;;;9823346;29;20048;-59
2022/01/18 04:04:37;;;;;;;16.60;8.70;;;5.70;97.50;;;;;;9818346;29;20063;-56
2022/01/18 04:09:27;;;;;;;14.73;8.55;;;5.60;97.60;;;;;;9822294;29;20058;-58
2022/01/18 04:14:18;;;;;;;18.00;8.82;;;5.60;97.70;;;;;;9825150;29;20579;-58
2022/01/18 04:25:44;;;;;;;17.73;9.00;;;5.60;97.50;;;;;;9820508;29;20028;-56
2022/01/18 04:29:29;;;;;;;19.73;9.77;;;5.50;97.60;;;;;;9828444;29;20521;-59
2022/01/18 04:34:20;;;;;;;21.40;10.02;;;5.50;97.60;;;;;;9825767;29;20522;-57
2022/01/18 04:39:10;;;;;;;17.27;8.32;;;5.50;97.60;;;;;;9815546;29;20043;-58
2022/01/18 04:48:52;;;;;;;23.15;9.80;;;5.40;97.50;;;;;;9826891;29;20040;-58
2022/01/18 04:53:52;;;;;;;21.63;9.20;;;5.40;97.50;;;;;;9825636;29;20429;-57
2022/01/18 04:58:43;;;;;;;18.95;8.88;;;5.30;97.60;;;;;;9829401;29;20054;-60
2022/01/18 05:03:34;;;;;;;22.40;10.15;;;5.40;97.60;;;;;;9823171;29;20028;-62
2022/01/18 05:08:25;;;;;;;24.02;10.13;;;5.30;97.50;;;;;;9818236;29;20051;-63
2022/01/18 05:13:50;;;;;;;26.85;9.30;;;5.30;97.50;;;;;;9828269;29;20032;-57
2022/01/18 05:23:54;;;;;;;23.35;9.55;;;5.20;97.70;;;;;;9820049;29;20043;-59
2022/01/18 05:28:46;;;;;;;21.17;9.32;;;5.20;97.70;;;;;;9817369;29;20052;-57
2022/01/18 05:33:40;;;;;;;18.10;8.25;;;5.20;97.70;;;;;;9820770;29;20039;-55
2022/01/18 05:38:32;;;;;;;19.50;9.10;;;5.30;97.60;;;;;;9821214;29;20028;-56
2022/01/18 05:43:23;;;;;;;24.85;9.05;;;5.30;98.00;;;;;;9818267;29;20028;-60
2022/01/18 05:48:13;;;;;;;24.73;10.77;;;5.30;97.60;;;;;;9817449;29;20554;-59
2022/01/18 05:53:04;;;;;;;18.92;8.98;;;5.20;97.50;;;;;;9820556;29;20036;-59
2022/01/18 05:57:55;;;;;;;25.80;10.90;;;5.20;97.90;;;;;;9820505;29;20036;-57
2022/01/18 06:03:01;;;;;;;24.75;8.95;;;5.20;97.70;;;;;;9819623;29;20083;-58
2022/01/18 06:07:52;;;;;;;;;;;5.20;97.80;;;;;;9822141;29;20035;-64
2022/01/18 06:12:43;;;;;;;25.45;10.15;;;5.20;98.00;;;;;;9816789;29;19919;-57
2022/01/18 06:17:33;;;;;;;26.85;10.05;;;5.10;98.00;;;;;;9820086;29;20039;-63
2022/01/18 06:22:24;;;;;;;27.30;9.32;;;5.20;97.80;;;;;;9824870;29;20058;-61
2022/01/18 06:27:18;;;;;;;23.42;9.40;;;5.30;97.70;;;;;;9816017;29;20028;-60
2022/01/18 06:32:09;;;;;;;22.52;9.32;;;5.30;97.60;;;;;;9817828;29;20541;-59
2022/01/18 06:37:00;;;;;;;23.90;9.63;;;5.30;97.70;;;;;;9821195;29;20060;-59
2022/01/18 06:41:51;;;;;;;24.70;8.65;;;5.30;97.80;;;;;;9822066;29;20051;-56
2022/01/18 06:46:42;;;;;;;20.52;10.30;;;5.30;97.80;;;;;;9816731;29;20518;-58
2022/01/18 06:51:34;;;;;;;25.95;9.63;;;5.30;97.70;;;;;;9819952;29;20032;-60
2022/01/18 06:56:26;;;;;;;19.55;9.07;;;5.20;97.70;;;;;;9818773;29;20174;-55
2022/01/18 07:01:17;;;;;;;24.48;9.93;;;5.30;97.70;;;;;;9829127;29;20059;-61
2022/01/18 07:06:07;;;;;;;22.85;8.90;;;5.40;97.70;;;;;;9834206;29;20491;-57
2022/01/18 07:10:58;;;;;;;26.48;10.18;;;5.40;97.70;;;;;;9830642;29;20143;-57
2022/01/18 07:15:49;;;;;;;20.40;8.93;;;5.50;97.60;;;;;;9831469;29;20454;-57
2022/01/18 07:20:41;;;;;;;22.85;10.95;;;5.40;97.70;;;;;;9831376;29;20128;-56
2022/01/18 07:25:31;;;;;;;28.33;10.45;;;5.50;97.60;;;;;;9827004;29;20020;-59
2022/01/18 07:30:22;;;;;;;21.83;9.52;;;5.50;97.70;;;;;;9827785;29;20044;-57
2022/01/18 07:35:13;;;;;;;19.75;8.30;;;5.60;97.70;;;;;;9822851;29;20325;-60
2022/01/18 07:40:05;;;;;;;21.52;9.38;;;5.70;97.60;;;;;;9829031;29;21037;-59
2022/01/18 07:44:56;;;;;;;22.88;7.80;;;5.70;97.60;;;;;;9827922;29;20028;-60
2022/01/18 07:49:47;;;;;;;30.27;10.48;;;5.70;97.60;;;;;;9823756;29;20047;-61
2022/01/18 07:54:38;;;;;;;26.83;10.75;;;5.80;97.60;;;;;;9824193;29;20039;-62
2022/01/18 07:59:29;;;;;;;21.05;9.82;;;5.70;97.70;;;;;;9828760;29;20071;-58
2022/01/18 08:04:20;;;;;;;22.23;8.57;;;5.70;97.80;;;;;;9818233;29;20024;-61
2022/01/18 08:09:11;;;;;;;19.88;10.23;;;5.80;97.70;;;;;;9818211;29;20044;-58
2022/01/18 08:14:02;;;;;;;25.38;8.63;;;5.80;97.80;;;;;;9818021;29;20047;-56
2022/01/18 08:18:55;;;;;;;18.83;8.75;;;5.70;97.90;;;;;;9825067;29;20165;-65
2022/01/18 08:23:46;;;;;;;18.20;8.93;;;5.80;97.70;;;;;;9824206;29;20032;-62
2022/01/18 08:28:36;;;;;;;17.80;9.40;;;5.80;97.70;;;;;;9818668;29;20037;-55
2022/01/18 08:33:27;;;;;;;27.02;10.93;;;5.80;97.70;;;;;;9810762;29;20104;-57
2022/01/18 08:38:17;;;;;;;23.55;9.55;;;5.80;97.70;;;;;;9807502;29;20032;-60
2022/01/18 08:43:09;;;;;;;21.45;10.15;;;5.80;97.80;;;;;;9826246;29;20039;-61
2022/01/18 08:47:59;;;;;;;22.40;10.48;;;6.00;97.80;;;;;;9829345;29;20119;-61
2022/01/18 08:52:52;;;;;;;21.75;10.65;;;6.10;97.70;;;;;;9823172;29;20225;-63
2022/01/18 08:57:43;;;;;;;25.25;11.45;;;6.10;97.60;;;;;;9816258;29;20415;-56
2022/01/18 09:02:33;;;;;;;26.00;10.77;;;6.20;97.60;;;;;;9808856;29;20039;-58
2022/01/18 09:07:24;;;;;;;23.30;11.60;;;6.30;97.30;;;;;;9817614;29;20024;-58
2022/01/18 09:12:17;;;;;;;22.55;10.07;;;6.10;97.60;;;;;;9818636;29;20044;-57
2022/01/18 09:17:08;;;;;;;19.13;10.27;;;6.00;97.90;;;;;;9818593;29;20464;-54
2022/01/18 09:22:00;;;;;;;23.67;10.48;;;6.20;97.90;;;;;;9822170;29;20036;-59
2022/01/18 09:26:51;;;;;;;21.85;10.43;;;6.40;97.80;;;;;;9818291;29;20163;-57
2022/01/18 09:31:42;;;;;;;17.65;9.77;;;6.60;97.60;;;;;;9817592;29;20040;-55
2022/01/18 09:36:32;;;;;;;21.48;10.70;;;6.40;97.60;;;;;;9815884;29;20451;-54
2022/01/18 09:41:30;;;;;;;20.95;10.88;;;6.20;97.70;;;;;;9820101;29;20060;-58
2022/01/18 09:46:26;;;;;;;19.08;7.78;;;6.00;97.80;;;;;;9833624;29;20024;-57
2022/01/18 09:51:17;;;;;;;18.58;8.45;;;5.90;97.70;;;;;;9819523;29;20050;-54
2022/01/18 09:56:08;;;;;;;15.63;8.18;;;6.10;97.70;;;;;;9816956;29;20040;-57
2022/01/18 10:00:58;;;;;;;15.27;8.95;;;6.20;97.60;;;;;;9817776;29;20032;-57
2022/01/18 10:05:50;;;;;;;25.35;9.98;;;6.20;97.60;;;;;;9818479;29;20047;-58
2022/01/18 10:10:47;;;;;;;20.58;9.57;;;6.30;97.40;;;;;;9818526;29;20822;-56
2022/01/18 10:15:38;;;;;;;18.70;9.27;;;6.40;97.30;;;;;;9820392;29;20024;-55
2022/01/18 10:20:28;;;;;;;15.15;7.80;;;6.60;97.20;;;;;;9817527;29;20586;-57
2022/01/18 10:25:28;;;;;;;17.38;7.38;;;6.60;97.20;;;;;;9817053;29;20036;-57
2022/01/18 10:30:32;;;;;;;20.08;8.60;;;6.70;97.10;;;;;;9815890;29;20423;-58
2022/01/18 10:35:23;;;;;;;17.38;7.78;;;6.90;97.00;;;;;;9815373;29;20027;-58
2022/01/18 10:40:17;;;;;;;17.48;7.82;;;7.00;96.90;;;;;;9815815;29;20138;-61
2022/01/18 10:45:21;;;;;;;14.00;6.13;;;7.10;96.70;;;;;;9816747;29;20028;-59
2022/01/18 10:50:17;;;;;;;10.32;5.72;;;7.20;96.60;;;;;;9815806;29;20036;-62
2022/01/18 10:55:18;;;;;;;10.87;5.10;;;7.30;96.50;;;;;;9812446;29;20044;-60
2022/01/18 11:00:11;;;;;;;9.48;5.35;;;7.40;96.50;;;;;;9815249;29;20272;-57
2022/01/18 11:05:20;;;;;;;12.27;5.72;;;7.40;96.30;;;;;;9814733;29;20056;-61
2022/01/18 11:10:12;;;;;;;9.15;4.68;;;7.70;96.10;;;;;;9813685;29;20086;-60
2022/01/18 11:15:07;;;;;;;6.20;3.67;;;7.90;95.60;;;;;;9812359;29;21059;-62
2022/01/18 11:19:58;;;;;;;9.43;3.43;;;8.10;95.50;;;;;;9812077;29;20028;-60
2022/01/18 11:24:49;;;;;;;7.82;3.67;;;8.10;95.40;;;;;;9814609;29;20032;-60
2022/01/18 11:29:44;;;;;;;7.72;3.17;;;8.30;95.50;;;;;;9817964;29;20048;-64
2022/01/18 11:34:59;;;;;;;5.82;2.92;;;8.20;95.10;;;;;;9815396;29;20024;-58
2022/01/18 11:40:04;;;;;;;4.35;2.55;;;8.10;95.00;;;;;;9775873;29;20047;-59
2022/01/18 11:44:55;;;;;;;8.73;3.40;;;8.10;94.50;;;;;;9819407;29;20039;-58
2022/01/18 11:49:48;;;;;;;4.75;2.25;;;7.90;94.30;;;;;;9821965;29;20134;-59
2022/01/18 11:59:40;;;;;;;5.78;2.20;;;8.00;94.10;;;;;;9824901;29;20039;-58
2022/01/18 12:04:54;;;;;;;6.65;3.50;;;8.00;93.90;;;;;;9825239;29;20031;-62
2022/01/18 12:09:48;;;;;;;4.82;2.47;;;8.10;93.90;;;;;;9822398;29;20046;-62
2022/01/18 12:14:43;;;;;;;3.92;1.92;;;8.10;93.50;;;;;;9822045;29;20380;-63
2022/01/18 12:19:47;;;;;;;4.00;2.20;;;8.00;93.00;;;;;;9829070;29;20028;-64
2022/01/18 12:24:42;;;;;;;4.47;2.33;;;8.00;92.90;;;;;;9831270;29;20103;-63
2022/01/18 12:34:30;;;;;;;5.38;2.30;;;8.00;93.00;;;;;;9826286;29;20433;-60
2022/01/18 12:39:21;;;;;;;4.82;1.98;;;8.00;93.10;;;;;;9822653;29;20037;-59
2022/01/18 12:44:21;;;;;;;3.50;2.17;;;8.00;93.10;;;;;;9822453;29;20348;-64
2022/01/18 12:49:13;;;;;;;4.38;2.78;;;8.00;93.00;;;;;;9820051;29;20538;-60
2022/01/18 12:54:03;;;;;;;6.03;2.38;;;8.10;93.00;;;;;;9825307;29;20036;-61
2022/01/18 12:58:55;;;;;;;4.72;2.42;;;8.20;92.80;;;;;;9820117;29;20047;-62
2022/01/18 13:03:52;;;;;;;5.43;2.28;;;8.20;92.60;;;;;;9819709;29;20361;-60
2022/01/18 13:08:48;;;;;;;7.72;3.25;;;8.30;93.00;;;;;;9827559;29;20032;-61
2022/01/18 13:13:40;;;;;;;5.45;2.33;;;8.20;92.90;;;;;;9818508;29;20495;-60
2022/01/18 13:24:06;;;;;;;8.90;3.03;;;8.10;93.20;;;;;;9819360;29;20540;-59
2022/01/18 13:29:20;;;;;;;5.95;3.38;;;8.20;92.80;;;;;;9817887;29;20292;-61
2022/01/18 13:34:13;;;;;;;11.05;4.32;;;8.40;93.00;;;;;;9817310;29;20127;-61
2022/01/18 13:39:22;;;;;;;8.40;3.30;;;8.40;92.90;;;;;;9816175;29;20032;-63
2022/01/18 13:44:13;;;;;;;7.57;2.85;;;8.20;92.60;;;;;;9818736;29;20100;-62
2022/01/18 13:49:05;;;;;;;5.75;2.45;;;8.20;92.90;;;;;;9817435;29;20040;-64
2022/01/18 13:54:08;;;;;;;4.30;2.30;;;8.20;92.70;;;;;;9816025;29;20043;-64
2022/01/18 13:59:02;;;;;;;4.35;2.20;;;8.30;92.60;;;;;;9819694;29;20060;-63
2022/01/18 14:03:55;;;;;;;4.65;1.83;;;8.40;92.60;;;;;;9818489;29;20051;-65
2022/01/18 14:08:53;;;;;;;4.55;2.05;;;8.40;92.60;;;;;;9817410;29;20105;-55
2022/01/18 14:13:43;;;;;;;5.55;1.90;;;8.30;92.60;;;;;;9815817;29;20340;-58
2022/01/18 14:18:50;;;;;;;2.50;1.60;;;8.20;92.50;;;;;;9816509;29;20459;-53
2022/01/18 14:23:42;;;;;;;;;;;8.20;91.80;;;;;;9817902;29;20422;-59
2022/01/18 14:28:33;;;;;;;2.30;1.58;;;8.20;91.80;;;;;;9814306;29;19936;-66
2022/01/18 14:33:24;;;;;;;3.83;2.00;;;8.30;91.90;;;;;;9820674;29;20410;-61
2022/01/18 14:38:15;;;;;;;2.70;1.20;;;8.20;91.80;;;;;;9823865;29;20023;-59
2022/01/18 14:43:15;;;;;;;4.47;1.58;;;8.20;91.80;;;;;;9814408;29;20265;-56
2022/01/18 14:48:14;;;;;;;3.47;1.50;;;8.10;91.60;;;;;;9813873;29;20051;-57
2022/01/18 14:53:06;;;;;;;3.40;1.48;;;8.10;91.90;;;;;;9815758;29;20062;-61
2022/01/18 14:57:58;;;;;;;5.75;2.33;;;8.10;91.60;;;;;;9813507;29;20048;-63
2022/01/18 15:02:49;;;;;;;4.82;1.20;;;8.20;91.60;;;;;;9816340;29;20681;-62
2022/01/18 15:07:41;;;;;;;4.13;1.88;;;8.20;91.70;;;;;;9816594;29;20042;-60
2022/01/18 15:12:35;;;;;;;3.95;2.30;;;8.10;91.50;;;;;;9813424;29;20494;-68
2022/01/18 15:17:25;;;;;;;2.38;1.02;;;7.90;91.50;;;;;;9821757;29;20439;-61
2022/01/18 15:22:18;;;;;;;5.00;2.13;;;7.80;91.60;;;;;;9820260;29;20087;-62
2022/01/18 15:27:08;;;;;;;2.75;1.85;;;7.80;91.60;;;;;;9823520;29;20027;-61
2022/01/18 15:32:00;;;;;;;2.53;1.77;;;7.70;91.50;;;;;;9820688;29;20375;-61
2022/01/18 15:36:51;;;;;;;2.40;2.20;;;7.80;91.60;;;;;;9818723;29;20035;-64
2022/01/18 15:41:42;;;;;;;3.10;2.10;;;7.70;91.30;;;;;;9817451;29;20487;-64
2022/01/18 15:46:33;;;;;;;1.70;1.20;;;7.40;91.40;;;;;;9823018;29;20179;-63
2022/01/18 15:51:24;;;;;;;2.17;1.70;;;7.30;91.40;;;;;;9821853;29;20048;-66
2022/01/18 15:56:18;;;;;;;4.53;1.40;;;7.20;91.50;;;;;;9822369;29;20048;-62
2022/01/18 16:01:09;;;;;;;1.67;1.25;;;7.10;91.50;;;;;;9822326;29;20413;-63
2022/01/18 16:06:00;;;;;;;3.30;1.45;;;7.00;91.50;;;;;;9822796;29;20021;-61
2022/01/18 16:10:51;;;;;;;4.30;2.40;;;6.90;91.80;;;;;;9820041;29;20040;-62
2022/01/18 16:15:42;;;;;;;1.83;1.55;;;6.90;91.50;;;;;;9823543;29;20458;-62
2022/01/18 16:20:33;;;;;;;3.53;1.48;;;6.80;91.60;;;;;;9821062;29;20064;-68
2022/01/18 16:25:23;;;;;;;2.63;1.48;;;6.70;91.60;;;;;;9822465;29;20032;-59
2022/01/18 16:30:14;;;;;;;1.33;1.08;;;6.70;91.60;;;;;;9822626;29;20135;-60
2022/01/18 16:35:06;;;;;;;1.92;1.35;;;6.60;91.70;;;;;;9821348;29;20146;-61
2022/01/18 16:39:57;;;;;;;4.32;1.77;;;6.60;91.70;;;;;;9816988;29;20142;-63
2022/01/18 16:44:48;;;;;;;3.65;1.50;;;6.50;91.80;;;;;;9817396;29;20024;-63
2022/01/18 16:49:39;;;;;;;2.30;1.58;;;6.40;91.80;;;;;;9820228;29;20096;-61
2022/01/18 16:54:30;;;;;;;2.88;1.52;;;6.40;91.90;;;;;;9819577;29;20020;-60
2022/01/18 16:59:21;;;;;;;4.50;1.92;;;6.40;92.00;;;;;;9821077;29;20119;-61
2022/01/18 17:04:12;;;;;;;4.60;2.25;;;6.30;92.00;;;;;;9817735;29;20443;-61
2022/01/18 17:09:04;;;;;;;6.93;1.85;;;6.30;92.10;;;;;;9819249;29;20036;-62
2022/01/18 17:13:55;;;;;;;4.13;2.10;;;6.20;92.20;;;;;;9819587;29;20070;-64
2022/01/18 17:18:46;;;;;;;4.65;2.70;;;6.20;92.30;;;;;;9818907;29;20052;-61
2022/01/18 17:23:37;;;;;;;5.30;2.22;;;6.20;92.30;;;;;;9819484;29;20076;-62
2022/01/18 17:28:27;;;;;;;4.30;1.90;;;6.10;92.30;;;;;;9817475;29;20024;-63
2022/01/18 17:33:19;;;;;;;5.03;1.98;;;6.10;92.40;;;;;;9820536;29;20522;-63
2022/01/18 17:38:09;;;;;;;4.32;2.80;;;6.10;92.40;;;;;;9815689;29;20052;-63
2022/01/18 17:43:00;;;;;;;5.75;2.17;;;6.00;92.40;;;;;;9818980;29;20602;-67
2022/01/18 17:47:51;;;;;;;5.10;3.22;;;6.00;92.50;;;;;;9816050;29;20407;-62
2022/01/18 17:52:41;;;;;;;4.00;2.17;;;6.00;92.50;;;;;;9818310;29;20096;-62
2022/01/18 17:57:32;;;;;;;5.18;2.70;;;5.90;92.50;;;;;;9818138;29;20400;-61
2022/01/18 18:02:23;;;;;;;9.15;3.13;;;5.90;92.60;;;;;;9819258;29;20465;-64
2022/01/18 18:07:15;;;;;;;5.32;2.58;;;5.90;92.50;;;;;;9815688;29;20615;-63
2022/01/18 18:12:08;;;;;;;4.72;3.33;;;5.90;92.60;;;;;;9818511;29;20503;-63
2022/01/18 18:16:59;;;;;;;7.90;3.28;;;5.80;92.60;;;;;;9815255;29;20133;-63
2022/01/18 18:21:50;;;;;;;4.95;3.67;;;5.90;92.60;;;;;;9818790;29;20021;-62
2022/01/18 18:26:41;;;;;;;6.70;3.30;;;5.80;92.50;;;;;;9818786;29;20024;-61
2022/01/18 18:31:33;;;;;;;5.82;3.22;;;5.70;92.60;;;;;;9816135;29;20451;-62
2022/01/18 18:36:24;;;;;;;7.93;3.08;;;5.60;92.70;;;;;;9815621;29;20050;-60
2022/01/18 18:41:28;;;;;;;8.80;3.78;;;5.50;92.70;;;;;;9815322;29;20139;-63
2022/01/18 18:46:19;;;;;;;9.23;3.28;;;5.50;92.70;;;;;;9816811;29;20036;-62
2022/01/18 18:51:10;;;;;;;7.90;3.53;;;5.50;92.70;;;;;;9816085;29;20123;-63
2022/01/18 18:56:00;;;;;;;5.15;3.78;;;5.50;92.70;;;;;;9819701;29;20052;-62
2022/01/18 19:00:53;;;;;;;6.63;2.92;;;5.50;92.70;;;;;;9812827;29;20055;-62
2022/01/18 19:05:50;;;;;;;8.52;3.40;;;5.40;92.80;;;;;;9812230;29;20088;-61
2022/01/18 19:10:41;;;;;;;4.38;2.83;;;5.40;92.90;;;;;;9815301;29;20449;-62
2022/01/18 19:15:33;;;;;;;7.32;3.40;;;5.40;92.90;;;;;;9814498;29;20039;-61
2022/01/18 19:20:27;;;;;;;6.05;3.03;;;5.40;92.90;;;;;;9815140;29;20020;-61
2022/01/18 19:25:21;;;;;;;5.70;3.47;;;5.40;92.90;;;;;;9818372;29;20102;-61
2022/01/18 19:30:12;;;;;;;6.00;3.00;;;5.30;93.00;;;;;;9815521;29;20150;-64
2022/01/18 19:35:10;;;;;;;8.60;3.13;;;5.30;93.40;;;;;;9811250;29;20272;-60
2022/01/18 19:40:06;;;;;;;6.57;3.50;;;5.30;93.10;;;;;;9816096;29;20641;-62
2022/01/18 19:44:57;;;;;;;5.85;3.50;;;5.20;93.10;;;;;;9813073;29;20310;-59
2022/01/18 19:49:47;;;;;;;10.75;3.22;;;5.20;93.20;;;;;;9816190;29;20058;-65
2022/01/18 19:54:38;;;;;;;8.80;3.70;;;5.20;93.30;;;;;;9816165;29;20024;-61
2022/01/18 19:59:29;;;;;;;6.43;3.10;;;5.10;93.30;;;;;;9817099;29;20036;-61
2022/01/18 20:04:19;;;;;;;8.27;3.85;;;5.10;93.30;;;;;;9810751;29;20053;-62
2022/01/18 20:09:12;;;;;;;10.73;3.83;;;5.10;93.40;;;;;;9809287;29;20078;-61
2022/01/18 20:14:03;;;;;;;6.57;3.63;;;5.10;93.40;;;;;;9829833;29;20029;-61
2022/01/18 20:18:54;;;;;;;8.15;3.55;;;5.00;93.40;;;;;;9827119;29;20040;-67
2022/01/18 20:23:48;;;;;;;4.80;3.10;;;5.10;93.40;;;;;;9829593;29;20495;-64
2022/01/18 20:28:38;;;;;;;10.05;4.05;;;5.00;93.40;;;;;;9825926;29;20454;-61
2022/01/18 20:33:29;;;;;;;7.90;4.10;;;5.00;93.40;;;;;;9823824;29;20036;-60
2022/01/18 20:38:20;;;;;;;9.38;3.47;;;5.00;93.40;;;;;;9823095;29;20038;-59
2022/01/18 20:48:20;;;;;;;10.05;4.80;;;5.00;93.50;;;;;;9827092;29;20091;-61
2022/01/18 20:53:14;;;;;;;14.10;5.47;;;5.00;93.50;;;;;;9822420;29;20052;-62
2022/01/18 20:58:05;;;;;;;5.32;3.60;;;5.00;93.50;;;;;;9825483;29;20051;-61
2022/01/18 21:02:56;;;;;;;6.38;3.58;;;4.90;93.60;;;;;;9824449;29;20065;-61
2022/01/18 21:07:47;;;;;;;9.48;4.18;;;4.90;93.60;;;;;;9823080;29;20075;-60
2022/01/18 21:12:38;;;;;;;6.05;3.55;;;4.90;93.70;;;;;;9822755;29;20043;-59
2022/01/18 21:17:29;;;;;;;8.57;4.40;;;4.90;93.60;;;;;;9828051;29;20352;-62
2022/01/18 21:22:21;;;;;;;7.22;3.65;;;4.80;93.60;;;;;;9815639;29;20296;-60
2022/01/18 21:27:12;;;;;;;10.50;3.78;;;4.80;93.70;;;;;;9823332;29;20028;-63
2022/01/18 21:32:03;;;;;;;6.45;3.10;;;4.80;93.70;;;;;;9812687;29;20141;-63
2022/01/18 21:36:54;;;;;;;7.22;3.70;;;4.80;93.80;;;;;;9819044;29;20502;-61
2022/01/18 21:41:45;;;;;;;9.25;3.53;;;4.80;93.80;;;;;;9818192;29;20083;-62
2022/01/18 21:46:36;;;;;;;10.18;3.80;;;4.70;93.80;;;;;;9829777;29;20616;-61
2022/01/18 21:51:27;;;;;;;6.75;3.95;;;4.70;93.80;;;;;;9822807;29;20044;-60
2022/01/18 21:56:18;;;;;;;9.88;4.38;;;4.70;93.80;;;;;;9824517;29;20165;-60
2022/01/18 22:01:09;;;;;;;8.77;3.85;;;4.70;93.80;;;;;;9814409;29;20040;-60
2022/01/18 22:06:08;;;;;;;14.68;4.30;;;4.80;93.80;;;;;;9817018;29;20111;-60
2022/01/18 22:10:59;;;;;;;8.73;3.75;;;4.70;93.80;;;;;;9822232;29;20308;-61
2022/01/18 22:15:50;;;;;;;6.38;3.22;;;4.70;93.90;;;;;;9818061;29;20038;-61
2022/01/18 22:20:41;;;;;;;5.75;3.22;;;4.70;93.80;;;;;;9822087;29;20047;-60
2022/01/18 22:25:32;;;;;;;4.35;3.20;;;4.70;93.90;;;;;;9816245;29;20322;-60
2022/01/18 22:30:23;;;;;;;6.70;3.67;;;4.70;93.90;;;;;;9822072;29;20055;-61
2022/01/18 22:35:14;;;;;;;7.28;4.30;;;4.60;93.90;;;;;;9815993;29;20075;-60
2022/01/18 22:40:07;;;;;;;5.95;3.65;;;4.60;93.80;;;;;;9818865;29;20035;-59
2022/01/18 22:44:59;;;;;;;8.32;3.53;;;4.70;93.90;;;;;;9824374;29;20035;-61
2022/01/18 22:49:50;;;;;;;6.07;4.00;;;4.60;93.80;;;;;;9817348;29;20024;-59
2022/01/18 22:54:41;;;;;;;8.80;3.83;;;4.60;93.80;;;;;;9816299;29;20028;-60
2022/01/18 22:59:32;;;;;;;6.63;3.80;;;4.60;93.90;;;;;;9817551;29;20572;-60
2022/01/18 23:04:22;;;;;;;6.03;3.40;;;4.50;93.80;;;;;;9820274;29;20039;-61
2022/01/18 23:09:14;;;;;;;5.35;2.55;;;4.50;93.80;;;;;;9815421;29;20032;-68
2022/01/18 23:14:05;;;;;;;6.28;3.45;;;4.50;93.80;;;;;;9825690;29;20134;-62
2022/01/18 23:18:56;;;;;;;4.72;3.30;;;4.50;93.80;;;;;;9819489;29;20028;-61
2022/01/18 23:23:46;;;;;;;6.15;2.97;;;4.50;93.80;;;;;;9815241;29;20032;-60
2022/01/18 23:28:37;;;;;;;6.10;3.72;;;4.50;93.70;;;;;;9820039;29;20028;-60
2022/01/18 23:33:28;;;;;;;4.10;3.28;;;4.50;93.70;;;;;;9813196;29;20071;-63
2022/01/18 23:38:30;;;;;;;4.93;3.13;;;4.40;93.80;;;;;;9818821;29;20079;-61
2022/01/18 23:43:21;;;;;;;8.13;4.40;;;4.30;93.90;;;;;;9824252;29;20028;-60
2022/01/18 23:48:12;;;;;;;7.20;3.40;;;4.30;93.80;;;;;;9824649;29;20495;-61
2022/01/18 23:53:02;;;;;;;7.57;3.90;;;4.30;93.80;;;;;;9825843;29;20116;-60
2022/01/18 23:57:53;;;;;;;7.82;3.95;;;4.20;93.70;;;;;;9824232;29;20111;-60
